createdAt,value
2024-04-16T00:24:23.928Z,12.25
2024-04-16T00:26:51.009Z,12.27
2024-04-16T00:29:19.016Z,12.33
2024-04-16T00:31:46.117Z,12.30
2024-04-16T00:34:13.224Z,12.21
2024-04-16T00:36:40.343Z,12.13
2024-04-16T00:39:09.394Z,11.91
2024-04-16T00:41:36.426Z,11.81
2024-04-16T00:44:03.468Z,11.67
2024-04-16T00:46:30.636Z,11.57
2024-04-16T00:48:58.387Z,11.50
2024-04-16T00:51:25.661Z,11.39
2024-04-16T00:53:52.816Z,11.38
2024-04-16T00:56:20.044Z,11.27
2024-04-16T00:58:47.922Z,11.18
2024-04-16T01:01:15.420Z,11.14
2024-04-16T01:03:44.670Z,11.19
2024-04-16T01:06:13.027Z,11.32
2024-04-16T01:08:40.100Z,11.35
2024-04-16T01:11:07.136Z,11.43
2024-04-16T01:13:34.251Z,11.47
2024-04-16T01:16:01.351Z,11.58
2024-04-16T01:18:28.473Z,11.58
2024-04-16T01:20:55.812Z,11.64
2024-04-16T01:23:22.817Z,11.64
2024-04-16T01:25:49.871Z,11.61
2024-04-16T01:28:16.913Z,11.68
2024-04-16T01:30:43.971Z,11.71
2024-04-16T01:33:11.042Z,11.79
2024-04-16T01:35:38.033Z,11.74
2024-04-16T01:38:05.310Z,11.71
2024-04-16T01:40:32.393Z,11.74
2024-04-16T01:42:59.445Z,11.66
2024-04-16T01:45:26.578Z,11.71
2024-04-16T01:47:53.658Z,11.67
2024-04-16T01:50:20.698Z,11.70
2024-04-16T01:52:47.739Z,11.59
2024-04-16T01:55:14.986Z,11.65
2024-04-16T01:57:42.067Z,11.64
2024-04-16T02:00:09.825Z,11.68
2024-04-16T02:02:37.805Z,11.74
2024-04-16T02:05:05.397Z,11.74
2024-04-16T02:07:32.747Z,11.71
2024-04-16T02:10:00.352Z,11.78
2024-04-16T02:12:27.477Z,11.64
2024-04-16T02:14:54.486Z,11.67
2024-04-16T02:17:23.150Z,11.44
2024-04-16T02:19:50.197Z,11.34
2024-04-16T02:22:17.216Z,11.29
2024-04-16T02:24:44.320Z,11.16
2024-04-16T02:27:11.362Z,11.20
2024-04-16T02:29:38.456Z,11.19
2024-04-16T02:32:05.849Z,11.20
2024-04-16T02:34:32.892Z,11.32
2024-04-16T02:36:59.991Z,11.21
2024-04-16T02:39:27.079Z,11.16
2024-04-16T02:41:54.925Z,11.14
2024-04-16T02:44:21.984Z,11.05
2024-04-16T02:46:48.998Z,11.15
2024-04-16T02:49:16.050Z,11.11
2024-04-16T02:51:43.101Z,11.13
2024-04-16T02:54:10.254Z,11.18
2024-04-16T02:56:37.385Z,11.08
2024-04-16T02:59:04.418Z,11.01
2024-04-16T03:01:33.342Z,11.08
2024-04-16T03:04:00.494Z,11.10
2024-04-16T03:06:27.616Z,11.07
2024-04-16T03:08:54.741Z,10.96
2024-04-16T03:11:21.755Z,10.96
2024-04-16T03:13:48.866Z,11.01
2024-04-16T03:16:16.001Z,10.99
2024-04-16T03:18:45.335Z,11.06
2024-04-16T03:21:12.393Z,11.00
2024-04-16T03:23:39.492Z,10.78
2024-04-16T03:26:06.528Z,10.87
2024-04-16T03:28:34.430Z,10.95
2024-04-16T03:31:01.684Z,10.91
2024-04-16T03:33:28.797Z,10.81
2024-04-16T03:35:56.355Z,10.77
2024-04-16T03:38:23.458Z,10.88
2024-04-16T03:41:03.866Z,10.71
2024-04-16T03:43:33.274Z,10.76
2024-04-16T03:46:06.454Z,10.81
2024-04-16T03:48:33.494Z,10.79
2024-04-16T03:51:00.686Z,10.85
2024-04-16T03:53:27.936Z,10.85
2024-04-16T03:56:00.178Z,10.83
2024-04-16T03:58:31.184Z,10.88
2024-04-16T04:01:09.564Z,10.65
2024-04-16T04:03:36.962Z,10.83
2024-04-16T04:06:04.156Z,10.81
2024-04-16T04:08:31.206Z,10.88
2024-04-16T04:10:58.316Z,10.88
2024-04-16T04:13:25.502Z,10.94
2024-04-16T04:15:52.611Z,10.90
2024-04-16T04:18:19.811Z,10.86
2024-04-16T04:20:48.087Z,10.95
2024-04-16T04:23:15.876Z,10.83
2024-04-16T04:25:42.993Z,10.76
2024-04-16T04:28:10.036Z,10.93
2024-04-16T04:30:38.382Z,10.80
2024-04-16T04:33:05.605Z,10.92
2024-04-16T04:35:32.850Z,10.85
2024-04-16T04:38:00.045Z,10.95
2024-04-16T04:40:27.933Z,10.89
2024-04-16T04:42:56.644Z,10.94
2024-04-16T04:45:23.791Z,10.97
2024-04-16T04:47:50.949Z,10.88
2024-04-16T04:50:18.040Z,10.89
2024-04-16T04:52:45.198Z,11.03
2024-04-16T04:55:12.337Z,11.02
2024-04-16T04:57:40.399Z,10.90
2024-04-16T05:00:08.179Z,10.91
2024-04-16T05:02:35.304Z,10.93
2024-04-16T05:05:02.376Z,10.91
2024-04-16T05:07:29.485Z,10.87
2024-04-16T05:09:56.497Z,10.95
2024-04-16T05:12:23.833Z,10.97
2024-04-16T05:14:50.860Z,11.01
2024-04-16T05:17:17.852Z,10.96
2024-04-16T05:19:44.903Z,11.00
2024-04-16T05:22:12.112Z,10.98
2024-04-16T05:24:39.168Z,11.04
2024-04-16T05:27:06.168Z,11.01
2024-04-16T05:29:33.547Z,10.95
2024-04-16T05:32:00.651Z,11.08
2024-04-16T05:34:27.719Z,11.08
2024-04-16T05:36:54.934Z,11.08
2024-04-16T05:39:22.174Z,11.07
2024-04-16T05:41:49.262Z,11.06
2024-04-16T05:44:16.405Z,11.04
2024-04-16T05:46:43.558Z,10.94
2024-04-16T05:49:10.691Z,10.99
2024-04-16T05:51:37.734Z,10.93
2024-04-16T05:54:08.126Z,11.01
2024-04-16T05:56:35.748Z,11.05
2024-04-16T05:59:02.946Z,11.12
2024-04-16T06:01:30.258Z,11.11
2024-04-16T06:03:57.323Z,11.01
2024-04-16T06:06:24.466Z,11.02
2024-04-16T06:08:51.549Z,10.92
2024-04-16T06:11:18.669Z,11.04
2024-04-16T06:13:47.974Z,11.04
2024-04-16T06:16:15.431Z,11.08
2024-04-16T06:18:43.696Z,11.09
2024-04-16T06:21:13.637Z,11.00
2024-04-16T06:23:40.790Z,10.89
2024-04-16T06:26:09.698Z,10.96
2024-04-16T06:28:37.653Z,10.95
2024-04-16T06:31:05.107Z,11.06
2024-04-16T06:33:34.746Z,11.09
2024-04-16T06:36:02.172Z,11.07
2024-04-16T06:38:29.234Z,11.08
2024-04-16T06:40:56.363Z,10.99
2024-04-16T06:43:23.491Z,11.07
2024-04-16T06:45:50.627Z,11.14
2024-04-16T06:48:17.951Z,11.13
2024-04-16T06:50:48.095Z,11.21
2024-04-16T06:53:15.291Z,11.20
2024-04-16T06:55:42.723Z,11.05
2024-04-16T06:58:10.023Z,11.13
2024-04-16T07:00:37.052Z,11.09
2024-04-16T07:03:04.528Z,10.91
2024-04-16T07:05:31.613Z,11.02
2024-04-16T07:07:58.707Z,11.16
2024-04-16T07:10:25.781Z,11.04
2024-04-16T07:12:52.826Z,11.01
2024-04-16T07:15:19.838Z,10.95
2024-04-16T07:17:47.097Z,11.07
2024-04-16T07:20:14.250Z,11.09
2024-04-16T07:22:41.317Z,11.08
2024-04-16T07:25:08.565Z,11.19
2024-04-16T07:27:35.782Z,11.16
2024-04-16T07:30:02.890Z,11.22
2024-04-16T07:32:30.230Z,11.21
2024-04-16T07:34:58.365Z,11.05
2024-04-16T07:37:26.281Z,11.04
2024-04-16T07:39:53.308Z,11.23
2024-04-16T07:42:20.362Z,11.06
2024-04-16T07:44:47.546Z,11.20
2024-04-16T07:47:15.091Z,11.19
2024-04-16T07:49:42.237Z,11.11
2024-04-16T07:52:09.339Z,11.07
2024-04-16T07:54:36.410Z,11.06
2024-04-16T07:57:03.630Z,11.00
2024-04-16T07:59:30.744Z,11.05
2024-04-16T08:01:57.830Z,11.20
2024-04-16T08:04:25.017Z,11.24
2024-04-16T08:06:52.218Z,11.16
2024-04-16T08:09:20.005Z,11.19
2024-04-16T08:11:47.118Z,11.32
2024-04-16T08:14:18.125Z,11.35
2024-04-16T08:16:45.275Z,11.51
2024-04-16T08:19:14.220Z,11.70
2024-04-16T08:21:41.416Z,11.75
2024-04-16T08:24:08.527Z,11.53
2024-04-16T08:26:35.603Z,11.51
2024-04-16T08:29:02.632Z,11.38
2024-04-16T08:31:30.033Z,11.36
2024-04-16T08:33:57.281Z,11.25
2024-04-16T08:36:24.577Z,11.41
2024-04-16T08:38:51.787Z,11.31
2024-04-16T08:41:18.862Z,11.27
2024-04-16T08:43:47.132Z,11.35
2024-04-16T08:46:15.707Z,11.39
2024-04-16T08:48:44.950Z,11.47
2024-04-16T08:51:15.075Z,11.56
2024-04-16T08:53:43.574Z,11.63
2024-04-16T08:56:11.130Z,11.59
2024-04-16T08:58:38.291Z,11.57
2024-04-16T09:01:07.751Z,11.60
2024-04-16T09:03:35.346Z,11.78
2024-04-16T09:06:05.405Z,11.74
2024-04-16T09:08:33.018Z,11.60
2024-04-16T09:11:00.322Z,11.56
2024-04-16T09:13:27.432Z,11.64
2024-04-16T09:15:54.589Z,11.67
2024-04-16T09:18:25.215Z,11.74
2024-04-16T09:20:52.318Z,11.74
2024-04-16T09:23:19.377Z,11.68
2024-04-16T09:25:46.626Z,11.79
2024-04-16T09:28:17.561Z,11.84
2024-04-16T09:30:57.137Z,12.09
2024-04-16T09:33:33.529Z,11.71
2024-04-16T09:36:11.911Z,11.98
2024-04-16T09:38:46.671Z,11.99
2024-04-16T09:41:15.306Z,11.78
2024-04-16T09:43:43.993Z,11.81
2024-04-16T09:46:13.070Z,11.92
2024-04-16T09:48:43.571Z,11.93
2024-04-16T09:51:10.848Z,11.81
2024-04-16T09:53:41.100Z,11.69
2024-04-16T09:56:10.406Z,11.53
2024-04-16T09:58:38.581Z,11.50
2024-04-16T10:01:05.882Z,11.34
2024-04-16T10:03:33.597Z,11.46
2024-04-16T10:06:00.927Z,11.51
2024-04-16T10:08:28.437Z,11.61
2024-04-16T10:11:02.520Z,11.74
2024-04-16T10:13:34.652Z,11.80
2024-04-16T10:16:02.151Z,11.52
2024-04-16T10:18:30.099Z,11.33
2024-04-16T10:21:01.568Z,11.65
2024-04-16T10:23:31.639Z,11.72
2024-04-16T10:25:59.754Z,11.60
2024-04-16T10:28:32.947Z,11.71
2024-04-16T10:31:12.918Z,11.85
2024-04-16T10:33:43.969Z,11.79
2024-04-16T10:36:16.527Z,11.81
2024-04-16T10:38:43.848Z,11.58
2024-04-16T10:41:11.029Z,11.34
2024-04-16T10:43:39.706Z,11.28
2024-04-16T10:46:07.750Z,11.29
2024-04-16T10:48:34.810Z,11.18
2024-04-16T10:51:01.963Z,11.18
2024-04-16T10:53:28.981Z,11.21
2024-04-16T10:55:56.479Z,11.25
2024-04-16T10:58:23.653Z,11.46
2024-04-16T11:00:55.095Z,11.57
2024-04-16T11:03:23.794Z,11.45
2024-04-16T11:05:50.996Z,11.35
2024-04-16T11:08:18.200Z,11.25
2024-04-16T11:10:51.588Z,11.31
2024-04-16T11:13:23.326Z,11.42
2024-04-16T11:15:52.706Z,11.93
2024-04-16T11:18:20.956Z,12.19
2024-04-16T11:20:48.802Z,12.38
2024-04-16T11:23:16.042Z,12.22
2024-04-16T11:25:48.226Z,12.03
2024-04-16T11:28:15.990Z,11.98
2024-04-16T11:30:55.311Z,11.94
2024-04-16T11:33:30.147Z,12.00
2024-04-16T11:36:10.700Z,12.02
2024-04-16T11:38:43.886Z,12.13
2024-04-16T11:41:13.533Z,12.31
2024-04-16T11:43:43.851Z,12.14
2024-04-16T11:46:13.742Z,11.88
2024-04-16T11:48:43.736Z,11.97
2024-04-16T11:51:12.837Z,11.97
2024-04-16T11:53:40.519Z,12.10
2024-04-16T11:56:11.940Z,12.32
2024-04-16T11:58:40.943Z,12.41
2024-04-16T12:01:08.343Z,12.74
2024-04-16T12:03:35.448Z,12.80
2024-04-16T12:06:02.636Z,12.95
2024-04-16T12:08:29.724Z,13.01
2024-04-16T12:10:56.938Z,13.11
2024-04-16T12:13:24.064Z,12.95
2024-04-16T12:15:51.574Z,12.74
2024-04-16T12:18:18.742Z,12.37
2024-04-16T12:20:46.383Z,12.20
2024-04-16T12:23:13.460Z,12.11
2024-04-16T12:25:40.557Z,12.00
2024-04-16T12:28:07.805Z,11.72
2024-04-16T12:30:34.903Z,11.66
2024-04-16T12:33:11.005Z,11.70
2024-04-16T12:35:43.163Z,11.79
2024-04-16T12:38:10.151Z,11.91
2024-04-16T12:40:37.774Z,12.15
2024-04-16T12:43:05.209Z,12.13
2024-04-16T12:45:32.196Z,12.09
2024-04-16T12:47:59.420Z,12.12
2024-04-16T12:50:26.532Z,12.20
2024-04-16T12:52:53.675Z,12.21
2024-04-16T12:55:20.908Z,12.36
2024-04-16T12:57:48.003Z,12.43
2024-04-16T13:00:15.056Z,12.52
2024-04-16T13:02:42.115Z,12.66
2024-04-16T13:05:09.214Z,12.71
2024-04-16T13:07:36.426Z,12.90
2024-04-16T13:10:03.535Z,12.81
2024-04-16T13:12:30.542Z,12.91
2024-04-16T13:14:57.570Z,12.74
2024-04-16T13:17:24.692Z,12.60
2024-04-16T13:19:53.867Z,12.62
2024-04-16T13:22:21.475Z,12.67
2024-04-16T13:24:48.686Z,12.70
2024-04-16T13:27:15.832Z,12.78
2024-04-16T13:29:43.168Z,12.87
2024-04-16T13:32:10.765Z,12.86
2024-04-16T13:34:38.171Z,12.92
2024-04-16T13:37:05.458Z,12.66
2024-04-16T13:39:32.604Z,12.79
2024-04-16T13:41:59.710Z,12.97
2024-04-16T13:44:26.887Z,13.19
2024-04-16T13:46:54.032Z,13.09
2024-04-16T13:49:21.204Z,13.01
2024-04-16T13:51:48.375Z,13.15
2024-04-16T13:54:15.569Z,13.11
2024-04-16T13:56:42.976Z,13.06
2024-04-16T13:59:10.282Z,13.20
2024-04-16T14:01:37.440Z,13.18
2024-04-16T14:04:04.550Z,13.13
2024-04-16T14:06:31.610Z,13.33
2024-04-16T14:09:01.429Z,13.70
2024-04-16T14:11:28.579Z,13.77
2024-04-16T14:13:55.702Z,13.69
2024-04-16T14:16:23.401Z,13.88
2024-04-16T14:18:52.495Z,14.11
2024-04-16T14:21:20.127Z,13.94
2024-04-16T14:23:47.693Z,13.44
2024-04-16T14:26:17.319Z,13.36
2024-04-16T14:28:45.277Z,13.12
2024-04-16T14:31:14.366Z,12.99
2024-04-16T14:33:42.415Z,12.82
2024-04-16T14:36:09.569Z,12.78
2024-04-16T14:38:36.651Z,12.55
2024-04-16T14:41:03.727Z,12.42
2024-04-16T14:43:30.817Z,12.33
2024-04-16T14:45:57.923Z,12.26
2024-04-16T14:48:25.092Z,12.09
2024-04-16T14:50:52.213Z,12.17
2024-04-16T14:53:19.937Z,12.06
2024-04-16T14:55:50.900Z,12.08
2024-04-16T14:58:18.000Z,12.09
2024-04-16T15:00:45.610Z,12.17
2024-04-16T15:03:13.091Z,12.15
2024-04-16T15:05:41.457Z,12.21
2024-04-16T15:08:11.256Z,12.26
2024-04-16T15:10:38.168Z,12.44
2024-04-16T15:13:08.313Z,12.55
2024-04-16T15:15:35.799Z,12.59
2024-04-16T15:18:03.367Z,12.51
2024-04-16T15:20:30.671Z,12.51
2024-04-16T15:23:00.730Z,12.45
2024-04-16T15:25:27.897Z,12.48
2024-04-16T15:27:55.016Z,12.64
2024-04-16T15:30:22.061Z,12.72
2024-04-16T15:32:49.255Z,12.85
2024-04-16T15:35:16.655Z,12.89
2024-04-16T15:37:45.086Z,12.74
2024-04-16T15:40:17.491Z,12.63
2024-04-16T15:42:51.405Z,12.54
2024-04-16T15:45:18.390Z,12.58
2024-04-16T15:47:45.507Z,12.49
2024-04-16T15:50:12.625Z,12.54
2024-04-16T15:52:39.715Z,12.49
2024-04-16T15:55:06.868Z,12.49
2024-04-16T15:57:34.302Z,12.53
2024-04-16T16:00:01.361Z,12.49
2024-04-16T16:02:28.557Z,12.58
2024-04-16T16:04:55.829Z,12.49
2024-04-16T16:07:23.106Z,12.51
2024-04-16T16:09:52.522Z,12.47
2024-04-16T16:12:20.216Z,12.40
2024-04-16T16:14:47.270Z,12.30
2024-04-16T16:17:14.369Z,12.05
2024-04-16T16:19:41.530Z,12.27
2024-04-16T16:22:11.343Z,12.39
2024-04-16T16:24:38.231Z,12.50
2024-04-16T16:27:05.328Z,12.79
2024-04-16T16:29:32.405Z,12.77
2024-04-16T16:31:59.520Z,12.79
2024-04-16T16:34:26.588Z,12.93
2024-04-16T16:36:53.665Z,12.85
2024-04-16T16:39:20.718Z,12.76
2024-04-16T16:41:47.793Z,12.74
2024-04-16T16:44:15.626Z,12.59
2024-04-16T16:46:42.946Z,12.56
2024-04-16T16:49:10.090Z,12.46
2024-04-16T16:51:37.254Z,12.41
2024-04-16T16:54:04.460Z,12.32
2024-04-16T16:56:31.588Z,12.31
2024-04-16T16:59:01.393Z,12.33
2024-04-16T17:01:28.404Z,12.34
2024-04-16T17:03:55.525Z,12.27
2024-04-16T17:06:22.646Z,12.24
2024-04-16T17:08:50.158Z,12.32
2024-04-16T17:11:17.750Z,12.33
2024-04-16T17:13:44.985Z,12.39
2024-04-16T17:16:12.193Z,12.39
2024-04-16T17:18:42.158Z,12.31
2024-04-16T17:21:09.840Z,12.28
2024-04-16T17:23:36.877Z,12.17
2024-04-16T17:26:04.724Z,12.28
2024-04-16T17:28:34.908Z,12.16
2024-04-16T17:31:04.419Z,12.12
2024-04-16T17:33:31.779Z,11.91
2024-04-16T17:35:58.900Z,11.87
2024-04-16T17:38:26.527Z,11.65
2024-04-16T17:40:54.020Z,11.78
2024-04-16T17:43:21.218Z,11.73
2024-04-16T17:45:48.692Z,11.91
2024-04-16T17:48:15.959Z,11.98
2024-04-16T17:50:43.335Z,11.97
2024-04-16T17:53:10.520Z,11.99
2024-04-16T17:55:37.615Z,11.91
2024-04-16T17:58:07.546Z,11.99
2024-04-16T18:00:37.122Z,11.87
2024-04-16T18:03:07.178Z,11.82
2024-04-16T18:05:35.759Z,11.92
2024-04-16T18:08:05.193Z,11.94
2024-04-16T18:10:32.408Z,11.94
2024-04-16T18:12:59.479Z,11.92
2024-04-16T18:15:26.674Z,11.93
2024-04-16T18:17:53.884Z,11.78
2024-04-16T18:20:21.014Z,11.81
2024-04-16T18:22:48.412Z,11.82
2024-04-16T18:25:15.739Z,11.78
2024-04-16T18:27:43.440Z,11.76
2024-04-16T18:30:10.872Z,11.68
2024-04-16T18:32:38.133Z,11.76
2024-04-16T18:35:05.968Z,11.75
2024-04-16T18:37:33.284Z,11.46
2024-04-16T18:40:00.445Z,11.69
2024-04-16T18:42:27.690Z,11.59
2024-04-16T18:44:54.734Z,11.50
2024-04-16T18:47:23.396Z,11.45
2024-04-16T18:49:51.280Z,11.66
2024-04-16T18:52:18.488Z,11.47
2024-04-16T18:54:45.590Z,11.53
2024-04-16T18:57:12.668Z,11.40
2024-04-16T18:59:39.940Z,11.40
2024-04-16T19:02:07.329Z,11.50
2024-04-16T19:04:35.615Z,11.48
2024-04-16T19:07:02.890Z,11.44
2024-04-16T19:09:29.996Z,11.48
2024-04-16T19:11:57.121Z,11.36
2024-04-16T19:14:25.520Z,11.23
2024-04-16T19:16:52.592Z,11.07
2024-04-16T19:19:20.830Z,10.73
2024-04-16T19:21:48.444Z,10.56
2024-04-16T19:24:15.511Z,10.46
2024-04-16T19:26:42.539Z,10.29
2024-04-16T19:29:10.002Z,10.20
2024-04-16T19:31:37.258Z,10.09
2024-04-16T19:34:05.176Z,9.98
2024-04-16T19:36:32.824Z,10.04
2024-04-16T19:38:59.919Z,9.97
2024-04-16T19:41:27.344Z,9.99
2024-04-16T19:43:54.920Z,9.90
2024-04-16T19:46:22.062Z,9.99
2024-04-16T19:48:49.286Z,10.04
2024-04-16T19:51:16.458Z,10.07
2024-04-16T19:53:43.537Z,10.07
2024-04-16T19:56:14.144Z,10.03
2024-04-16T19:58:41.220Z,10.05
2024-04-16T20:01:11.190Z,10.09
2024-04-16T20:03:38.518Z,9.98
2024-04-16T20:06:10.544Z,10.14
2024-04-16T20:08:38.171Z,10.16
2024-04-16T20:11:05.953Z,10.19
2024-04-16T20:13:33.963Z,10.16
2024-04-16T20:16:04.514Z,10.19
2024-04-16T20:18:31.776Z,10.21
2024-04-16T20:21:02.288Z,10.20
2024-04-16T20:23:29.660Z,10.24
2024-04-16T20:26:09.596Z,10.26
2024-04-16T20:28:38.266Z,10.19
2024-04-16T20:31:05.887Z,10.07
2024-04-16T20:33:34.242Z,9.98
2024-04-16T20:36:04.113Z,9.96
2024-04-16T20:38:31.446Z,9.88
2024-04-16T20:40:59.495Z,9.85
2024-04-16T20:43:26.717Z,9.88
2024-04-16T20:45:53.925Z,9.87
2024-04-16T20:48:22.042Z,9.83
2024-04-16T20:50:55.809Z,9.83
2024-04-16T20:53:30.030Z,9.85
2024-04-16T20:55:58.938Z,9.84
2024-04-16T20:58:26.148Z,9.89
2024-04-16T21:00:54.806Z,9.95
2024-04-16T21:03:22.435Z,9.91
2024-04-16T21:05:52.501Z,9.87
2024-04-16T21:08:19.777Z,9.87
2024-04-16T21:10:47.344Z,9.85
2024-04-16T21:13:14.773Z,9.86
2024-04-16T21:15:44.688Z,9.91
2024-04-16T21:18:11.691Z,9.88
2024-04-16T21:20:38.796Z,9.92
2024-04-16T21:23:05.846Z,9.97
2024-04-16T21:25:32.902Z,9.99
2024-04-16T21:27:59.963Z,10.03
2024-04-16T21:30:26.996Z,9.99
2024-04-16T21:32:54.090Z,10.02
2024-04-16T21:35:21.105Z,10.05
2024-04-16T21:37:48.323Z,10.07
2024-04-16T21:40:15.460Z,10.05
2024-04-16T21:42:42.886Z,10.01
2024-04-16T21:45:09.942Z,10.04
2024-04-16T21:47:37.157Z,10.02
2024-04-16T21:50:04.461Z,10.04
2024-04-16T21:52:31.479Z,10.05
2024-04-16T21:54:58.547Z,10.10
2024-04-16T21:57:26.836Z,10.10
2024-04-16T21:59:54.029Z,10.11
2024-04-16T22:02:21.851Z,10.16
2024-04-16T22:04:49.143Z,10.13
2024-04-16T22:07:16.251Z,10.15
2024-04-16T22:09:43.297Z,10.10
2024-04-16T22:12:10.358Z,10.12
2024-04-16T22:14:37.376Z,10.15
2024-04-16T22:17:04.453Z,10.19
2024-04-16T22:19:31.463Z,10.14
2024-04-16T22:21:58.444Z,10.12
2024-04-16T22:24:25.566Z,10.09
2024-04-16T22:26:52.702Z,10.05
2024-04-16T22:29:20.313Z,9.94
2024-04-16T22:31:47.764Z,10.03
2024-04-16T22:34:14.833Z,10.11
2024-04-16T22:36:41.818Z,10.06
2024-04-16T22:39:08.805Z,10.07
2024-04-16T22:41:36.007Z,10.08
2024-04-16T22:44:03.118Z,9.98
2024-04-16T22:46:30.824Z,9.95
2024-04-16T22:48:57.960Z,9.96
2024-04-16T22:51:25.047Z,9.89
2024-04-16T22:53:52.580Z,9.94
2024-04-16T22:56:22.362Z,9.93
2024-04-16T22:58:50.947Z,9.90
2024-04-16T23:01:17.972Z,9.95
2024-04-16T23:03:45.077Z,9.93
2024-04-16T23:06:12.116Z,9.86
2024-04-16T23:08:39.130Z,9.75
2024-04-16T23:11:06.254Z,9.71
2024-04-16T23:13:33.312Z,9.61
2024-04-16T23:16:00.404Z,9.54
2024-04-16T23:18:27.507Z,9.55
2024-04-16T23:20:54.665Z,9.46
2024-04-16T23:23:21.692Z,9.61
2024-04-16T23:25:48.866Z,9.55
2024-04-16T23:28:15.905Z,9.48
2024-04-16T23:30:42.924Z,9.46
2024-04-16T23:33:10.122Z,9.52
2024-04-16T23:35:37.193Z,9.48
2024-04-16T23:38:04.389Z,9.49
2024-04-16T23:40:31.512Z,9.48
2024-04-16T23:42:58.654Z,9.42
2024-04-16T23:45:25.666Z,9.41
2024-04-16T23:47:52.779Z,9.39
2024-04-16T23:50:19.785Z,9.37
2024-04-16T23:52:48.080Z,9.38
2024-04-16T23:55:15.698Z,9.35
2024-04-16T23:57:42.702Z,9.29
